createdAt,value
2023-04-22T00:00:47.801Z,38.97
2023-04-22T00:01:47.829Z,38.94
2023-04-22T00:02:47.935Z,38.94
2023-04-22T00:03:48.999Z,38.98
2023-04-22T00:04:48.176Z,38.90
2023-04-22T00:05:47.985Z,38.98
2023-04-22T00:06:47.965Z,38.95
2023-04-22T00:07:47.980Z,38.94
2023-04-22T00:08:48.014Z,38.92
2023-04-22T00:09:48.043Z,38.94
2023-04-22T00:10:48.066Z,38.93
2023-04-22T00:11:48.099Z,38.93
2023-04-22T00:12:48.129Z,38.91
2023-04-22T00:13:48.156Z,38.93
2023-04-22T00:14:48.173Z,38.91
2023-04-22T00:15:48.399Z,38.94
2023-04-22T00:16:48.344Z,38.91
2023-04-22T00:17:48.293Z,38.89
2023-04-22T00:18:48.289Z,38.90
2023-04-22T00:19:48.320Z,38.93
2023-04-22T00:20:48.351Z,38.89
2023-04-22T00:21:48.370Z,38.89
2023-04-22T00:22:48.406Z,38.87
2023-04-22T00:23:48.420Z,38.90
2023-04-22T00:24:48.451Z,38.86
2023-04-22T00:25:48.490Z,38.91
2023-04-22T00:26:48.509Z,38.85
2023-04-22T00:27:48.548Z,38.87
2023-04-22T00:28:48.575Z,38.87
2023-04-22T00:29:48.601Z,38.86
2023-04-22T00:30:48.631Z,38.81
2023-04-22T00:31:48.856Z,38.86
2023-04-22T00:32:48.686Z,38.87
2023-04-22T00:33:48.710Z,38.87
2023-04-22T00:34:48.728Z,38.86
2023-04-22T00:35:48.756Z,38.85
2023-04-22T00:36:48.782Z,38.84
2023-04-22T00:37:48.857Z,38.85
2023-04-22T00:38:48.818Z,38.83
2023-04-22T00:39:48.858Z,38.82
2023-04-22T00:40:48.886Z,38.84
2023-04-22T00:41:48.911Z,38.82
2023-04-22T00:42:48.947Z,38.83
2023-04-22T00:43:48.980Z,38.86
2023-04-22T00:44:49.006Z,38.81
2023-04-22T00:45:49.052Z,38.87
2023-04-22T00:46:49.103Z,38.77
2023-04-22T00:47:49.374Z,38.83
2023-04-22T00:48:49.137Z,38.84
2023-04-22T00:49:49.157Z,38.81
2023-04-22T00:50:49.188Z,38.84
2023-04-22T00:51:49.231Z,38.79
2023-04-22T00:52:49.262Z,38.86
2023-04-22T00:53:49.278Z,38.83
2023-04-22T00:54:49.315Z,38.81
2023-04-22T00:55:49.336Z,38.82
2023-04-22T00:56:49.882Z,38.82
2023-04-22T00:57:49.388Z,38.81
2023-04-22T00:58:49.414Z,38.83
2023-04-22T00:59:49.437Z,38.82
2023-04-22T01:00:49.518Z,38.77
2023-04-22T01:01:49.550Z,38.79
2023-04-22T01:02:49.661Z,38.81
2023-04-22T01:03:49.864Z,38.83
2023-04-22T01:04:49.606Z,38.81
2023-04-22T01:05:49.654Z,38.83
2023-04-22T01:06:49.667Z,38.78
2023-04-22T01:07:49.781Z,38.79
2023-04-22T01:08:49.735Z,38.78
2023-04-22T01:09:50.464Z,38.84
2023-04-22T01:10:49.857Z,38.83
2023-04-22T01:11:49.843Z,38.78
2023-04-22T01:12:49.878Z,38.78
2023-04-22T01:13:49.979Z,38.82
2023-04-22T01:14:49.926Z,38.81
2023-04-22T01:15:49.961Z,38.80
2023-04-22T01:16:50.081Z,38.80
2023-04-22T01:17:50.098Z,38.79
2023-04-22T01:18:50.061Z,38.83
2023-04-22T01:19:50.101Z,38.77
2023-04-22T01:20:50.143Z,38.78
2023-04-22T01:21:50.176Z,38.79
2023-04-22T01:22:50.208Z,38.78
2023-04-22T01:23:50.239Z,38.84
2023-04-22T01:24:50.977Z,38.76
2023-04-22T01:25:50.314Z,38.82
2023-04-22T01:26:50.342Z,38.82
2023-04-22T01:27:50.374Z,38.79
2023-04-22T01:28:50.403Z,38.76
2023-04-22T01:29:50.443Z,38.79
2023-04-22T01:30:50.506Z,38.72
2023-04-22T01:31:50.610Z,38.78
2023-04-22T01:32:50.646Z,38.76
2023-04-22T01:33:50.596Z,38.78
2023-04-22T01:34:50.627Z,38.75
2023-04-22T01:35:50.667Z,38.79
2023-04-22T01:36:50.691Z,38.79
2023-04-22T01:37:50.752Z,38.74
2023-04-22T01:38:50.785Z,38.74
2023-04-22T01:39:50.858Z,38.79
2023-04-22T01:40:50.851Z,38.71
2023-04-22T01:41:50.887Z,38.75
2023-04-22T01:42:50.931Z,38.80
2023-04-22T01:43:51.036Z,38.75
2023-04-22T01:44:50.992Z,38.77
2023-04-22T01:45:51.052Z,38.75
2023-04-22T01:46:51.083Z,38.78
2023-04-22T01:47:51.196Z,38.80
2023-04-22T01:48:51.169Z,38.76
2023-04-22T01:49:51.195Z,38.75
2023-04-22T01:50:51.310Z,38.75
2023-04-22T01:51:51.263Z,38.73
2023-04-22T01:52:51.297Z,38.75
2023-04-22T01:53:51.333Z,38.76
2023-04-22T01:54:51.365Z,38.73
2023-04-22T01:55:51.486Z,38.70
2023-04-22T01:56:51.476Z,38.76
2023-04-22T01:57:51.496Z,38.75
2023-04-22T01:58:51.509Z,38.71
2023-04-22T01:59:51.545Z,38.66
2023-04-22T02:00:51.579Z,38.71
2023-04-22T02:01:51.659Z,38.71
2023-04-22T02:02:51.783Z,38.71
2023-04-22T02:03:51.839Z,38.73
2023-04-22T02:04:51.817Z,38.70
2023-04-22T02:05:51.777Z,38.72
2023-04-22T02:06:51.811Z,38.75
2023-04-22T02:07:51.853Z,38.70
2023-04-22T02:08:52.419Z,38.63
2023-04-22T02:09:51.933Z,38.65
2023-04-22T02:10:51.972Z,38.63
2023-04-22T02:11:52.003Z,38.66
2023-04-22T02:12:52.055Z,38.65
2023-04-22T02:13:52.090Z,38.63
2023-04-22T02:14:52.124Z,38.68
2023-04-22T02:15:52.280Z,38.70
2023-04-22T02:16:52.192Z,38.66
2023-04-22T02:17:52.232Z,38.62
2023-04-22T02:18:52.927Z,38.66
2023-04-22T02:19:52.332Z,38.58
2023-04-22T02:20:52.345Z,38.63
2023-04-22T02:21:52.368Z,38.63
2023-04-22T02:22:52.408Z,38.63
2023-04-22T02:23:52.441Z,38.63
2023-04-22T02:24:52.499Z,38.66
2023-04-22T02:25:52.927Z,38.60
2023-04-22T02:26:52.560Z,38.63
2023-04-22T02:27:52.595Z,38.65
2023-04-22T02:28:52.642Z,38.60
2023-04-22T02:29:52.737Z,38.61
2023-04-22T02:30:52.819Z,38.62
2023-04-22T02:31:52.849Z,38.61
2023-04-22T02:32:52.881Z,38.58
2023-04-22T02:33:52.842Z,38.58
2023-04-22T02:34:52.883Z,38.48
2023-04-22T02:35:52.912Z,38.49
2023-04-22T02:36:52.952Z,38.51
2023-04-22T02:37:52.992Z,38.47
2023-04-22T02:38:53.133Z,38.47
2023-04-22T02:39:53.098Z,38.46
2023-04-22T02:40:53.142Z,38.46
2023-04-22T02:41:53.159Z,38.43
2023-04-22T02:42:53.211Z,38.45
2023-04-22T02:43:53.252Z,38.42
2023-04-22T02:44:53.291Z,38.40
2023-04-22T02:45:53.331Z,38.42
2023-04-22T02:46:53.449Z,38.42
2023-04-22T02:47:53.432Z,38.40
2023-04-22T02:48:53.518Z,38.36
2023-04-22T02:49:53.491Z,38.30
2023-04-22T02:50:53.931Z,38.31
2023-04-22T02:51:53.570Z,38.33
2023-04-22T02:52:53.611Z,38.33
2023-04-22T02:53:53.664Z,38.29
2023-04-22T02:54:53.706Z,38.27
2023-04-22T02:55:53.753Z,38.24
2023-04-22T02:56:53.801Z,38.22
2023-04-22T02:57:53.850Z,38.22
2023-04-22T02:58:53.964Z,38.23
2023-04-22T02:59:53.917Z,38.26
2023-04-22T03:00:54.001Z,38.24
2023-04-22T03:01:54.112Z,38.23
2023-04-22T03:02:54.183Z,38.18
2023-04-22T03:03:54.389Z,38.23
2023-04-22T03:04:54.166Z,38.19
2023-04-22T03:05:54.202Z,38.18
2023-04-22T03:06:54.242Z,38.19
2023-04-22T03:07:54.280Z,38.20
2023-04-22T03:08:54.329Z,38.20
2023-04-22T03:09:54.439Z,38.19
2023-04-22T03:10:54.428Z,38.17
2023-04-22T03:11:54.463Z,38.20
2023-04-22T03:12:54.565Z,38.19
2023-04-22T03:13:54.550Z,38.18
2023-04-22T03:14:54.591Z,38.17
2023-04-22T03:15:54.644Z,38.15
2023-04-22T03:16:54.731Z,38.15
2023-04-22T03:17:54.752Z,38.19
2023-04-22T03:18:54.760Z,38.17
2023-04-22T03:19:54.806Z,38.16
2023-04-22T03:20:54.851Z,38.17
2023-04-22T03:21:54.888Z,38.15
2023-04-22T03:22:54.926Z,38.14
2023-04-22T03:23:54.982Z,38.18
2023-04-22T03:24:55.017Z,38.22
2023-04-22T03:25:55.070Z,38.18
2023-04-22T03:26:55.105Z,38.17
2023-04-22T03:27:55.160Z,38.15
2023-04-22T03:28:55.192Z,38.12
2023-04-22T03:29:55.242Z,38.15
2023-04-22T03:30:55.292Z,38.13
2023-04-22T03:31:55.361Z,38.13
2023-04-22T03:32:55.409Z,38.10
2023-04-22T03:33:55.421Z,38.12
2023-04-22T03:34:55.474Z,38.15
2023-04-22T03:35:55.532Z,38.10
2023-04-22T03:36:55.572Z,38.12
2023-04-22T03:37:55.614Z,38.11
2023-04-22T03:38:55.658Z,38.08
2023-04-22T03:39:55.710Z,38.08
2023-04-22T03:40:55.753Z,38.10
2023-04-22T03:41:55.789Z,38.13
2023-04-22T03:42:55.893Z,38.14
2023-04-22T03:43:55.900Z,38.11
2023-04-22T03:44:55.929Z,38.14
2023-04-22T03:45:56.077Z,38.13
2023-04-22T03:46:56.961Z,38.14
2023-04-22T03:47:56.147Z,38.12
2023-04-22T03:48:56.122Z,38.10
2023-04-22T03:49:56.181Z,38.12
2023-04-22T03:50:56.230Z,38.09
2023-04-22T03:51:56.291Z,38.08
2023-04-22T03:52:56.340Z,38.09
2023-04-22T03:53:56.386Z,38.00
2023-04-22T03:54:56.416Z,37.94
2023-04-22T03:55:56.459Z,37.92
2023-04-22T03:56:56.522Z,37.94
2023-04-22T03:57:56.561Z,37.87
2023-04-22T03:58:56.807Z,37.94
2023-04-22T03:59:56.650Z,37.90
2023-04-22T04:00:56.711Z,37.89
2023-04-22T04:01:56.774Z,37.89
2023-04-22T04:02:56.937Z,37.90
2023-04-22T04:03:56.972Z,37.86
2023-04-22T04:04:57.210Z,37.81
2023-04-22T04:05:57.175Z,37.79
2023-04-22T04:06:56.985Z,37.82
2023-04-22T04:07:57.047Z,37.77
2023-04-22T04:08:57.087Z,37.77
2023-04-22T04:09:57.142Z,37.75
2023-04-22T04:10:57.192Z,37.66
2023-04-22T04:11:58.004Z,37.68
2023-04-22T04:12:57.278Z,37.62
2023-04-22T04:13:57.337Z,37.68
2023-04-22T04:14:57.395Z,37.66
2023-04-22T04:15:57.561Z,37.65
2023-04-22T04:16:57.496Z,37.61
2023-04-22T04:17:57.573Z,37.63
2023-04-22T04:18:57.592Z,37.56
2023-04-22T04:19:57.637Z,37.59
2023-04-22T04:20:57.694Z,37.54
2023-04-22T04:21:57.749Z,37.59
2023-04-22T04:22:57.789Z,37.62
2023-04-22T04:23:57.858Z,37.61
2023-04-22T04:24:57.946Z,37.57
2023-04-22T04:25:57.965Z,37.56
2023-04-22T04:26:58.007Z,37.54
2023-04-22T04:27:58.070Z,37.58
2023-04-22T04:28:58.178Z,37.53
2023-04-22T04:29:58.165Z,37.51
2023-04-22T04:30:58.265Z,37.53
2023-04-22T04:31:58.285Z,37.53
2023-04-22T04:32:58.415Z,37.49
2023-04-22T04:33:58.397Z,37.50
2023-04-22T04:34:58.453Z,37.45
2023-04-22T04:35:58.503Z,37.43
2023-04-22T04:36:58.569Z,37.45
2023-04-22T04:37:58.625Z,37.42
2023-04-22T04:38:58.673Z,37.38
2023-04-22T04:39:58.949Z,37.32
2023-04-22T04:40:58.782Z,37.33
2023-04-22T04:41:59.069Z,37.38
2023-04-22T04:42:58.915Z,37.32
2023-04-22T04:43:58.956Z,37.36
2023-04-22T04:44:59.007Z,37.39
2023-04-22T04:45:59.062Z,37.32
2023-04-22T04:46:59.175Z,37.28
2023-04-22T04:47:59.192Z,37.31
2023-04-22T04:48:59.220Z,37.23
2023-04-22T04:49:59.270Z,37.22
2023-04-22T04:50:59.337Z,37.20
2023-04-22T04:51:59.373Z,37.24
2023-04-22T04:52:59.435Z,37.18
2023-04-22T04:53:59.501Z,37.23
2023-04-22T04:54:59.573Z,37.19
2023-04-22T04:55:59.614Z,37.19
2023-04-22T04:56:59.673Z,37.21
2023-04-22T04:57:59.724Z,37.13
2023-04-22T04:58:59.783Z,37.18
2023-04-22T04:59:59.839Z,37.13
2023-04-22T05:00:59.906Z,37.11
2023-04-22T05:02:00.059Z,37.14
2023-04-22T05:03:00.249Z,37.14
2023-04-22T05:04:00.253Z,37.14
2023-04-22T05:05:00.267Z,37.13
2023-04-22T05:06:00.203Z,37.15
2023-04-22T05:07:00.249Z,37.09
2023-04-22T05:08:00.319Z,37.16
2023-04-22T05:09:00.363Z,37.08
2023-04-22T05:10:00.442Z,37.05
2023-04-22T05:11:00.475Z,37.04
2023-04-22T05:12:00.533Z,36.99
2023-04-22T05:13:03.485Z,37.00
2023-04-22T05:14:00.583Z,37.01
2023-04-22T05:15:00.581Z,36.99
2023-04-22T05:16:00.625Z,36.97
2023-04-22T05:17:00.756Z,37.01
2023-04-22T05:18:00.589Z,37.00
2023-04-22T05:19:00.557Z,36.97
2023-04-22T05:20:00.556Z,37.01
2023-04-22T05:21:00.546Z,36.91
2023-04-22T05:22:00.531Z,36.92
2023-04-22T05:23:00.527Z,36.94
2023-04-22T05:24:00.522Z,36.98
2023-04-22T05:25:00.518Z,36.92
2023-04-22T05:26:00.516Z,36.98
2023-04-22T05:27:00.592Z,36.94
2023-04-22T05:28:00.497Z,36.92
2023-04-22T05:29:00.506Z,36.94
2023-04-22T05:30:00.488Z,36.87
2023-04-22T05:31:00.479Z,36.89
2023-04-22T05:32:00.524Z,36.88
2023-04-22T05:33:00.527Z,36.89
2023-04-22T05:34:00.452Z,36.86
2023-04-22T05:35:00.441Z,36.84
2023-04-22T05:36:00.423Z,36.85
2023-04-22T05:37:00.422Z,36.81
2023-04-22T05:38:00.402Z,36.84
2023-04-22T05:39:00.406Z,36.81
2023-04-22T05:40:00.402Z,36.82
2023-04-22T05:41:00.386Z,36.78
2023-04-22T05:42:00.369Z,36.71
2023-04-22T05:43:00.423Z,36.72
2023-04-22T05:44:00.473Z,36.69
2023-04-22T05:45:00.534Z,36.72
2023-04-22T05:46:00.722Z,36.65
2023-04-22T05:47:00.647Z,36.67
2023-04-22T05:48:00.719Z,36.62
2023-04-22T05:49:00.755Z,36.66
2023-04-22T05:50:00.811Z,36.65
2023-04-22T05:51:00.937Z,36.64
2023-04-22T05:52:00.957Z,36.66
2023-04-22T05:53:01.002Z,36.61
2023-04-22T05:54:01.055Z,36.67
2023-04-22T05:55:01.120Z,36.59
2023-04-22T05:56:01.184Z,36.57
2023-04-22T05:57:01.248Z,36.56
2023-04-22T05:58:01.316Z,36.56
2023-04-22T05:59:01.401Z,36.52
2023-04-22T06:00:01.418Z,36.52
2023-04-22T06:01:01.489Z,36.54
2023-04-22T06:02:01.574Z,36.52
2023-04-22T06:03:01.710Z,36.54
2023-04-22T06:04:01.782Z,36.50
2023-04-22T06:05:01.980Z,36.49
2023-04-22T06:06:02.037Z,36.44
2023-04-22T06:07:01.840Z,36.41
2023-04-22T06:08:01.973Z,36.41
2023-04-22T06:09:02.015Z,36.35
2023-04-22T06:10:05.427Z,36.35
2023-04-22T06:11:02.023Z,36.30
2023-04-22T06:12:02.021Z,36.38
2023-04-22T06:13:02.017Z,36.27
2023-04-22T06:14:02.012Z,36.25
2023-04-22T06:15:01.988Z,36.26
2023-04-22T06:16:02.098Z,36.27
2023-04-22T06:17:01.993Z,36.28
2023-04-22T06:18:02.065Z,36.27
2023-04-22T06:19:01.990Z,36.24
2023-04-22T06:20:01.982Z,36.24
2023-04-22T06:21:01.989Z,36.25
2023-04-22T06:22:01.986Z,36.27
2023-04-22T06:23:01.973Z,36.25
2023-04-22T06:24:01.966Z,36.20
2023-04-22T06:25:01.964Z,36.20
2023-04-22T06:26:01.965Z,36.22
2023-04-22T06:27:01.971Z,36.21
2023-04-22T06:28:01.978Z,36.18
2023-04-22T06:29:01.953Z,36.14
2023-04-22T06:30:01.948Z,36.16
2023-04-22T06:31:02.109Z,36.15
2023-04-22T06:32:02.505Z,36.18
2023-04-22T06:33:01.935Z,36.13
2023-04-22T06:34:01.913Z,36.10
2023-04-22T06:35:01.997Z,36.13
2023-04-22T06:36:01.901Z,36.14
2023-04-22T06:37:01.906Z,36.14
2023-04-22T06:38:01.912Z,36.12
2023-04-22T06:39:02.506Z,36.11
2023-04-22T06:40:01.998Z,36.18
2023-04-22T06:41:02.037Z,36.11
2023-04-22T06:42:02.093Z,36.11
2023-04-22T06:43:02.159Z,36.10
2023-04-22T06:44:02.233Z,36.14
2023-04-22T06:45:02.274Z,36.11
2023-04-22T06:46:02.330Z,36.04
2023-04-22T06:47:02.440Z,36.09
2023-04-22T06:48:02.453Z,36.04
2023-04-22T06:49:02.510Z,35.98
2023-04-22T06:50:02.585Z,36.04
2023-04-22T06:51:02.620Z,35.96
2023-04-22T06:52:02.657Z,35.96
2023-04-22T06:53:02.717Z,35.99
2023-04-22T06:54:02.780Z,35.98
2023-04-22T06:55:03.569Z,35.98
2023-04-22T06:56:02.910Z,35.97
2023-04-22T06:57:02.949Z,35.93
2023-04-22T06:58:03.004Z,35.92
2023-04-22T06:59:03.070Z,35.92
2023-04-22T07:00:03.109Z,35.93
2023-04-22T07:01:03.167Z,35.91
2023-04-22T07:02:03.331Z,35.92
2023-04-22T07:03:03.430Z,35.88
2023-04-22T07:04:03.354Z,35.87
2023-04-22T07:05:03.372Z,35.84
2023-04-22T07:06:03.429Z,35.88
2023-04-22T07:07:03.489Z,35.87
2023-04-22T07:08:03.543Z,35.87
2023-04-22T07:09:03.583Z,35.83
2023-04-22T07:10:03.645Z,35.86
2023-04-22T07:11:03.702Z,35.82
2023-04-22T07:12:03.742Z,35.76
2023-04-22T07:13:03.843Z,35.78
2023-04-22T07:14:03.856Z,35.79
2023-04-22T07:15:03.920Z,35.81
2023-04-22T07:16:03.976Z,35.80
2023-04-22T07:17:04.003Z,35.75
2023-04-22T07:18:04.109Z,35.78
2023-04-22T07:19:04.182Z,35.77
2023-04-22T07:20:04.156Z,35.76
2023-04-22T07:21:04.217Z,35.73
2023-04-22T07:22:04.290Z,35.78
2023-04-22T07:23:04.354Z,35.77
2023-04-22T07:24:04.361Z,35.72
2023-04-22T07:25:04.401Z,35.67
2023-04-22T07:26:04.451Z,35.70
2023-04-22T07:27:04.589Z,35.66
2023-04-22T07:28:04.561Z,35.72
2023-04-22T07:29:04.610Z,35.63
2023-04-22T07:30:04.663Z,35.67
2023-04-22T07:31:04.702Z,35.64
2023-04-22T07:32:04.783Z,35.70
2023-04-22T07:33:04.816Z,35.69
2023-04-22T07:34:04.853Z,35.72
2023-04-22T07:35:04.881Z,35.81
2023-04-22T07:36:04.929Z,35.71
2023-04-22T07:37:05.029Z,35.73
2023-04-22T07:38:05.427Z,35.76
2023-04-22T07:39:05.056Z,35.66
2023-04-22T07:40:05.101Z,35.82
2023-04-22T07:41:05.160Z,35.90
2023-04-22T07:42:05.178Z,35.76
2023-04-22T07:43:05.220Z,35.87
2023-04-22T07:44:05.267Z,35.84
2023-04-22T07:45:05.331Z,35.85
2023-04-22T07:46:05.388Z,35.87
2023-04-22T07:47:05.479Z,35.81
2023-04-22T07:48:05.506Z,35.82
2023-04-22T07:49:05.506Z,35.75
2023-04-22T07:50:05.552Z,35.73
2023-04-22T07:51:05.586Z,35.81
2023-04-22T07:52:05.636Z,35.82
2023-04-22T07:53:05.679Z,35.80
2023-04-22T07:54:05.732Z,35.79
2023-04-22T07:55:05.771Z,35.78
2023-04-22T07:56:05.821Z,35.85
2023-04-22T07:57:05.862Z,35.78
2023-04-22T07:58:05.909Z,35.82
2023-04-22T07:59:05.969Z,35.86
2023-04-22T08:00:06.009Z,35.84
2023-04-22T08:01:06.129Z,35.81
2023-04-22T08:02:06.167Z,35.83
2023-04-22T08:03:06.408Z,35.78
2023-04-22T08:04:06.449Z,35.78
2023-04-22T08:05:07.108Z,35.83
2023-04-22T08:06:06.287Z,35.73
2023-04-22T08:07:26.328Z,35.79
2023-04-22T08:08:07.317Z,35.80
2023-04-22T08:09:06.300Z,35.80
2023-04-22T08:10:06.296Z,35.75
2023-04-22T08:11:06.306Z,35.74
2023-04-22T08:12:06.281Z,35.75
2023-04-22T08:13:06.277Z,35.77
2023-04-22T08:14:06.270Z,35.77
2023-04-22T08:15:06.349Z,35.79
2023-04-22T08:16:06.289Z,35.74
2023-04-22T08:17:06.233Z,35.76
2023-04-22T08:18:06.266Z,35.68
2023-04-22T08:19:06.295Z,35.70
2023-04-22T08:20:07.985Z,35.69
2023-04-22T08:21:06.379Z,35.68
2023-04-22T08:22:06.421Z,35.71
2023-04-22T08:23:06.465Z,35.67
2023-04-22T08:24:06.515Z,35.66
2023-04-22T08:25:06.528Z,35.60
2023-04-22T08:26:06.577Z,35.66
2023-04-22T08:27:07.614Z,35.62
2023-04-22T08:28:06.675Z,35.62
2023-04-22T08:29:06.704Z,35.66
2023-04-22T08:30:06.753Z,35.62
2023-04-22T08:31:06.802Z,35.57
2023-04-22T08:32:06.811Z,35.61
2023-04-22T08:33:06.849Z,35.56
2023-04-22T08:34:06.887Z,35.60
2023-04-22T08:35:06.988Z,35.57
2023-04-22T08:36:06.948Z,35.59
2023-04-22T08:37:06.996Z,35.66
2023-04-22T08:38:07.029Z,35.58
2023-04-22T08:39:07.064Z,35.57
2023-04-22T08:40:07.105Z,35.60
2023-04-22T08:41:07.573Z,35.58
2023-04-22T08:42:07.235Z,35.57
2023-04-22T08:43:07.217Z,35.57
2023-04-22T08:44:07.259Z,35.56
2023-04-22T08:45:07.308Z,35.58
2023-04-22T08:46:07.407Z,35.53
2023-04-22T08:47:07.489Z,35.58
2023-04-22T08:48:07.477Z,35.55
2023-04-22T08:49:07.467Z,35.55
2023-04-22T08:50:07.496Z,35.57
2023-04-22T08:51:07.620Z,35.57
2023-04-22T08:52:07.581Z,35.56
2023-04-22T08:53:07.613Z,35.57
2023-04-22T08:54:07.665Z,35.51
2023-04-22T08:55:07.691Z,35.54
2023-04-22T08:56:07.736Z,35.52
2023-04-22T08:57:07.764Z,35.57
2023-04-22T08:58:07.798Z,35.54
2023-04-22T08:59:07.851Z,35.52
2023-04-22T09:00:07.869Z,35.53
2023-04-22T09:01:07.913Z,35.52
2023-04-22T09:02:08.076Z,35.57
2023-04-22T09:03:08.130Z,35.53
2023-04-22T09:04:08.146Z,35.56
2023-04-22T09:05:08.069Z,35.51
2023-04-22T09:06:08.117Z,35.55
2023-04-22T09:07:08.155Z,35.52
2023-04-22T09:08:08.234Z,35.51
2023-04-22T09:09:08.235Z,35.55
2023-04-22T09:10:08.284Z,35.51
2023-04-22T09:11:08.329Z,35.52
2023-04-22T09:12:09.062Z,35.48
2023-04-22T09:13:08.371Z,35.51
2023-04-22T09:14:08.422Z,35.53
2023-04-22T09:15:08.466Z,35.49
2023-04-22T09:16:08.520Z,35.50
2023-04-22T09:17:08.541Z,35.51
2023-04-22T09:18:08.580Z,35.49
2023-04-22T09:19:08.620Z,35.50
2023-04-22T09:20:08.689Z,35.50
2023-04-22T09:21:08.714Z,35.47
2023-04-22T09:22:08.767Z,35.49
2023-04-22T09:23:08.791Z,35.47
2023-04-22T09:24:08.819Z,35.47
2023-04-22T09:25:08.856Z,35.49
2023-04-22T09:26:08.904Z,35.49
2023-04-22T09:27:08.937Z,35.45
2023-04-22T09:28:09.565Z,35.49
2023-04-22T09:29:09.002Z,35.45
2023-04-22T09:30:09.041Z,35.45
2023-04-22T09:31:09.061Z,35.44
2023-04-22T09:32:09.223Z,35.49
2023-04-22T09:33:09.190Z,35.49
2023-04-22T09:34:09.193Z,35.41
2023-04-22T09:35:09.206Z,35.45
2023-04-22T09:36:09.280Z,35.44
2023-04-22T09:37:09.289Z,35.44
2023-04-22T09:38:09.321Z,35.49
2023-04-22T09:39:09.340Z,35.44
2023-04-22T09:40:09.385Z,35.44
2023-04-22T09:41:09.412Z,35.44
2023-04-22T09:42:10.070Z,35.41
2023-04-22T09:43:09.543Z,35.44
2023-04-22T09:44:09.515Z,35.45
2023-04-22T09:45:09.610Z,35.45
2023-04-22T09:46:09.614Z,35.44
2023-04-22T09:47:09.602Z,35.41
2023-04-22T09:48:09.663Z,35.41
2023-04-22T09:49:09.681Z,35.41
2023-04-22T09:50:09.713Z,35.42
2023-04-22T09:51:09.750Z,35.41
2023-04-22T09:52:09.797Z,35.49
2023-04-22T09:53:09.811Z,35.45
2023-04-22T09:54:09.867Z,35.45
2023-04-22T09:55:09.931Z,35.43
2023-04-22T09:56:09.908Z,35.41
2023-04-22T09:57:09.960Z,35.48
2023-04-22T09:58:09.984Z,35.47
2023-04-22T09:59:10.009Z,35.41
2023-04-22T10:00:10.031Z,35.42
2023-04-22T10:01:10.114Z,35.41
2023-04-22T10:02:11.118Z,35.39
2023-04-22T10:03:11.216Z,35.40
2023-04-22T10:04:10.223Z,35.47
2023-04-22T10:05:11.126Z,35.43
2023-04-22T10:06:10.230Z,35.40
2023-04-22T10:07:10.256Z,35.41
2023-04-22T10:08:10.319Z,35.40
2023-04-22T10:09:10.322Z,35.44
2023-04-22T10:10:10.338Z,35.42
2023-04-22T10:11:10.390Z,35.38
2023-04-22T10:12:10.497Z,35.40
2023-04-22T10:13:10.510Z,35.44
2023-04-22T10:14:10.490Z,35.39
2023-04-22T10:15:10.501Z,35.44
2023-04-22T10:16:10.544Z,35.38
2023-04-22T10:17:10.577Z,35.42
2023-04-22T10:18:10.605Z,35.41
2023-04-22T10:19:10.616Z,35.43
2023-04-22T10:20:10.655Z,35.42
2023-04-22T10:21:10.667Z,35.39
2023-04-22T10:22:10.705Z,35.42
2023-04-22T10:23:10.726Z,35.42
2023-04-22T10:24:10.758Z,35.42
2023-04-22T10:25:10.870Z,35.42
2023-04-22T10:26:10.906Z,35.37
2023-04-22T10:27:10.866Z,35.41
2023-04-22T10:28:10.864Z,35.39
2023-04-22T10:29:10.957Z,35.39
2023-04-22T10:30:11.583Z,35.37
2023-04-22T10:31:10.955Z,35.35
2023-04-22T10:32:11.195Z,35.40
2023-04-22T10:33:10.974Z,35.38
2023-04-22T10:34:11.117Z,35.33
2023-04-22T10:35:11.016Z,35.38
2023-04-22T10:36:11.044Z,35.38
2023-04-22T10:37:11.455Z,35.38
2023-04-22T10:38:11.153Z,35.36
2023-04-22T10:39:11.082Z,35.34
2023-04-22T10:40:11.185Z,35.33
2023-04-22T10:41:11.163Z,35.32
2023-04-22T10:42:11.240Z,35.33
2023-04-22T10:43:11.187Z,35.35
2023-04-22T10:44:11.189Z,35.34
2023-04-22T10:45:11.161Z,35.33
2023-04-22T10:46:11.249Z,35.33
2023-04-22T10:47:11.192Z,35.33
2023-04-22T10:48:11.211Z,35.30
2023-04-22T10:49:11.288Z,35.32
2023-04-22T10:50:11.241Z,35.32
2023-04-22T10:51:11.483Z,35.33
2023-04-22T10:52:11.301Z,35.28
2023-04-22T10:53:11.242Z,35.31
2023-04-22T10:54:11.308Z,35.27
2023-04-22T10:55:11.342Z,35.24
2023-04-22T10:56:11.314Z,35.26
2023-04-22T10:57:11.272Z,35.26
2023-04-22T10:58:11.306Z,35.25
2023-04-22T10:59:11.332Z,35.29
2023-04-22T11:00:11.318Z,35.29
2023-04-22T11:01:11.301Z,35.25
2023-04-22T11:02:11.388Z,35.22
2023-04-22T11:03:11.413Z,35.23
2023-04-22T11:04:11.427Z,35.24
2023-04-22T11:05:12.191Z,35.26
2023-04-22T11:06:11.611Z,35.23
2023-04-22T11:07:11.416Z,35.22
2023-04-22T11:08:11.265Z,35.23
2023-04-22T11:09:11.267Z,35.22
2023-04-22T11:10:12.173Z,35.20
2023-04-22T11:11:11.434Z,35.22
2023-04-22T11:12:11.263Z,35.19
2023-04-22T11:13:11.249Z,35.22
2023-04-22T11:14:11.241Z,35.14
2023-04-22T11:15:11.237Z,35.19
2023-04-22T11:16:11.394Z,35.19
2023-04-22T11:17:11.222Z,35.17
2023-04-22T11:18:11.218Z,35.20
2023-04-22T11:19:11.206Z,35.21
2023-04-22T11:20:11.190Z,35.21
2023-04-22T11:21:11.184Z,35.12
2023-04-22T11:22:11.169Z,35.15
2023-04-22T11:23:11.160Z,35.20
2023-04-22T11:24:11.138Z,35.17
2023-04-22T11:25:11.122Z,35.14
2023-04-22T11:26:11.132Z,35.13
2023-04-22T11:27:11.116Z,35.15
2023-04-22T11:28:11.086Z,35.18
2023-04-22T11:29:11.086Z,35.17
2023-04-22T11:30:11.077Z,35.17
2023-04-22T11:31:11.114Z,35.14
2023-04-22T11:32:11.056Z,35.09
2023-04-22T11:33:11.044Z,35.13
2023-04-22T11:34:11.043Z,35.11
2023-04-22T11:35:11.020Z,35.09
2023-04-22T11:36:11.046Z,35.11
2023-04-22T11:37:11.004Z,35.10
2023-04-22T11:38:11.018Z,35.06
2023-04-22T11:39:10.989Z,35.06
2023-04-22T11:40:21.697Z,35.07
2023-04-22T11:41:12.157Z,35.05
2023-04-22T11:42:11.127Z,35.06
2023-04-22T11:43:11.160Z,35.04
2023-04-22T11:44:11.203Z,35.01
2023-04-22T11:45:11.174Z,35.02
2023-04-22T11:46:11.223Z,34.99
2023-04-22T11:47:11.134Z,35.03
2023-04-22T11:48:11.152Z,34.97
2023-04-22T11:49:11.719Z,34.97
2023-04-22T11:50:11.099Z,34.96
2023-04-22T11:51:11.100Z,34.96
2023-04-22T11:52:11.041Z,34.96
2023-04-22T11:53:11.035Z,34.91
2023-04-22T11:54:10.997Z,34.90
2023-04-22T11:55:10.994Z,34.91
2023-04-22T11:56:10.973Z,34.87
2023-04-22T11:57:10.945Z,34.91
2023-04-22T11:58:10.925Z,34.87
2023-04-22T11:59:10.915Z,34.89
2023-04-22T12:00:10.888Z,34.86
2023-04-22T12:01:10.902Z,34.89
2023-04-22T12:02:11.037Z,34.87
2023-04-22T12:03:12.610Z,34.82
2023-04-22T12:04:11.056Z,34.83
2023-04-22T12:05:10.879Z,34.82
2023-04-22T12:06:10.825Z,34.86
2023-04-22T12:07:10.831Z,34.79
2023-04-22T12:08:10.803Z,34.79
2023-04-22T12:09:12.072Z,34.77
2023-04-22T12:10:10.736Z,34.81
2023-04-22T12:11:10.723Z,34.84
2023-04-22T12:12:10.695Z,34.75
2023-04-22T12:13:10.652Z,34.76
2023-04-22T12:14:10.628Z,34.80
2023-04-22T12:15:12.093Z,34.75
2023-04-22T12:16:10.645Z,34.75
2023-04-22T12:17:10.563Z,34.79
2023-04-22T12:18:10.532Z,34.75
2023-04-22T12:19:10.486Z,34.73
2023-04-22T12:20:10.454Z,34.74
2023-04-22T12:21:10.443Z,34.70
2023-04-22T12:22:10.413Z,34.70
2023-04-22T12:23:10.387Z,34.71
2023-04-22T12:24:10.379Z,34.72
2023-04-22T12:25:10.354Z,34.68
2023-04-22T12:26:10.324Z,34.66
2023-04-22T12:27:10.305Z,34.66
2023-04-22T12:28:10.274Z,34.67
2023-04-22T12:29:10.259Z,34.64
2023-04-22T12:30:10.235Z,34.65
2023-04-22T12:31:10.338Z,34.64
2023-04-22T12:32:10.260Z,34.60
2023-04-22T12:33:10.168Z,34.59
2023-04-22T12:34:10.197Z,34.59
2023-04-22T12:35:10.217Z,34.57
2023-04-22T12:36:10.634Z,34.60
2023-04-22T12:37:10.075Z,34.57
2023-04-22T12:38:10.045Z,34.57
2023-04-22T12:39:10.024Z,34.56
2023-04-22T12:40:09.998Z,34.52
2023-04-22T12:41:09.969Z,34.51
2023-04-22T12:42:09.944Z,34.54
2023-04-22T12:43:09.899Z,34.50
2023-04-22T12:44:09.883Z,34.50
2023-04-22T12:45:10.648Z,34.51
2023-04-22T12:46:09.909Z,34.44
2023-04-22T12:47:09.808Z,34.47
2023-04-22T12:48:09.778Z,34.45
2023-04-22T12:49:09.785Z,34.41
2023-04-22T12:50:09.741Z,34.47
2023-04-22T12:51:09.838Z,34.45
2023-04-22T12:52:10.652Z,34.39
2023-04-22T12:53:09.649Z,34.39